sensor_id;sensor_type;location;lat;lon;timestamp;pressure;altitude;pressure_sealevel;temperature;humidity
14232;BME280;7200;52.194;9.900;2023-04-27T00:02:06;100578.91;;;7.97;100.00
14232;BME280;7200;52.194;9.900;2023-04-27T00:04:32;100583.97;;;8.05;100.00
14232;BME280;7200;52.194;9.900;2023-04-27T00:06:57;100591.47;;;8.22;100.00
14232;BME280;7200;52.194;9.900;2023-04-27T00:09:22;100573.34;;;8.09;100.00
14232;BME280;7200;52.194;9.900;2023-04-27T00:11:47;100588.91;;;8.17;100.00
14232;BME280;7200;52.194;9.900;2023-04-27T00:14:13;100567.88;;;8.18;100.00
14232;BME280;7200;52.194;9.900;2023-04-27T00:16:38;100566.16;;;8.17;100.00
14232;BME280;7200;52.194;9.900;2023-04-27T00:19:03;100555.78;;;8.11;100.00
14232;BME280;7200;52.194;9.900;2023-04-27T00:21:29;100570.63;;;8.14;100.00
14232;BME280;7200;52.194;9.900;2023-04-27T00:23:54;100549.94;;;7.98;100.00
14232;BME280;7200;52.194;9.900;2023-04-27T00:26:20;100560.38;;;8.02;100.00
14232;BME280;7200;52.194;9.900;2023-04-27T00:28:46;100570.84;;;8.05;100.00
14232;BME280;7200;52.194;9.900;2023-04-27T00:31:11;100566.59;;;7.99;100.00
14232;BME280;7200;52.194;9.900;2023-04-27T00:33:37;100555.47;;;7.88;100.00
14232;BME280;7200;52.194;9.900;2023-04-27T00:36:02;100583.00;;;8.09;100.00
14232;BME280;7200;52.194;9.900;2023-04-27T00:38:28;100586.44;;;8.11;100.00
14232;BME280;7200;52.194;9.900;2023-04-27T00:41:04;100590.13;;;8.04;100.00
14232;BME280;7200;52.194;9.900;2023-04-27T00:43:30;100579.78;;;7.96;100.00
14232;BME280;7200;52.194;9.900;2023-04-27T00:45:55;100588.53;;;7.96;100.00
14232;BME280;7200;52.194;9.900;2023-04-27T00:48:21;100607.63;;;8.05;100.00
14232;BME280;7200;52.194;9.900;2023-04-27T00:50:46;100612.94;;;8.02;100.00
14232;BME280;7200;52.194;9.900;2023-04-27T00:53:12;100601.78;;;7.92;100.00
14232;BME280;7200;52.194;9.900;2023-04-27T00:55:38;100624.31;;;8.02;100.00
14232;BME280;7200;52.194;9.900;2023-04-27T00:58:03;100600.22;;;7.83;100.00
14232;BME280;7200;52.194;9.900;2023-04-27T01:00:28;100644.50;;;8.00;100.00
14232;BME280;7200;52.194;9.900;2023-04-27T01:02:54;100623.66;;;7.92;100.00
14232;BME280;7200;52.194;9.900;2023-04-27T01:05:20;100614.09;;;7.90;100.00
14232;BME280;7200;52.194;9.900;2023-04-27T01:07:46;100631.44;;;7.97;100.00
14232;BME280;7200;52.194;9.900;2023-04-27T01:10:12;100636.75;;;7.94;100.00
14232;BME280;7200;52.194;9.900;2023-04-27T01:12:37;100624.59;;;7.90;100.00
14232;BME280;7200;52.194;9.900;2023-04-27T01:15:03;100626.50;;;7.82;100.00
14232;BME280;7200;52.194;9.900;2023-04-27T01:17:29;100646.59;;;7.84;100.00
14232;BME280;7200;52.194;9.900;2023-04-27T01:19:55;100653.53;;;7.87;100.00
14232;BME280;7200;52.194;9.900;2023-04-27T01:22:20;100675.13;;;8.01;100.00
14232;BME280;7200;52.194;9.900;2023-04-27T01:24:46;100646.41;;;7.93;100.00
14232;BME280;7200;52.194;9.900;2023-04-27T01:27:11;100656.94;;;7.92;100.00
14232;BME280;7200;52.194;9.900;2023-04-27T01:29:37;100662.81;;;8.03;100.00
14232;BME280;7200;52.194;9.900;2023-04-27T01:32:03;100662.06;;;7.98;100.00
14232;BME280;7200;52.194;9.900;2023-04-27T01:34:28;100637.81;;;7.85;100.00
14232;BME280;7200;52.194;9.900;2023-04-27T01:37:14;100664.47;;;8.07;100.00
14232;BME280;7200;52.194;9.900;2023-04-27T01:39:39;100665.22;;;8.14;100.00
14232;BME280;7200;52.194;9.900;2023-04-27T01:42:05;100644.41;;;8.05;100.00
14232;BME280;7200;52.194;9.900;2023-04-27T01:44:30;100652.50;;;7.95;100.00
14232;BME280;7200;52.194;9.900;2023-04-27T01:46:56;100682.00;;;8.08;100.00
14232;BME280;7200;52.194;9.900;2023-04-27T01:49:21;100670.91;;;7.94;100.00
14232;BME280;7200;52.194;9.900;2023-04-27T01:51:46;100665.06;;;7.79;100.00
14232;BME280;7200;52.194;9.900;2023-04-27T01:54:11;100690.47;;;7.80;100.00
14232;BME280;7200;52.194;9.900;2023-04-27T01:56:37;100687.91;;;7.76;100.00
14232;BME280;7200;52.194;9.900;2023-04-27T01:59:02;100688.97;;;7.69;100.00
14232;BME280;7200;52.194;9.900;2023-04-27T02:01:27;100697.81;;;7.63;100.00
14232;BME280;7200;52.194;9.900;2023-04-27T02:03:53;100717.75;;;7.72;100.00
14232;BME280;7200;52.194;9.900;2023-04-27T02:06:18;100713.63;;;7.60;100.00
14232;BME280;7200;52.194;9.900;2023-04-27T02:08:43;100739.69;;;7.71;100.00
14232;BME280;7200;52.194;9.900;2023-04-27T02:11:08;100726.59;;;7.68;100.00
14232;BME280;7200;52.194;9.900;2023-04-27T02:13:34;100731.06;;;7.64;100.00
14232;BME280;7200;52.194;9.900;2023-04-27T02:15:59;100712.13;;;7.48;100.00
14232;BME280;7200;52.194;9.900;2023-04-27T02:18:27;100728.81;;;7.44;100.00
14232;BME280;7200;52.194;9.900;2023-04-27T02:20:52;100738.25;;;7.54;100.00
14232;BME280;7200;52.194;9.900;2023-04-27T02:23:18;100747.09;;;7.50;100.00
14232;BME280;7200;52.194;9.900;2023-04-27T02:25:43;100718.44;;;7.36;100.00
14232;BME280;7200;52.194;9.900;2023-04-27T02:28:11;100725.56;;;7.30;100.00
14232;BME280;7200;52.194;9.900;2023-04-27T02:30:37;100703.28;;;7.04;100.00
14232;BME280;7200;52.194;9.900;2023-04-27T02:33:02;100708.50;;;7.06;100.00
14232;BME280;7200;52.194;9.900;2023-04-27T02:35:28;100747.44;;;7.30;100.00
14232;BME280;7200;52.194;9.900;2023-04-27T02:37:53;100718.00;;;7.14;100.00
14232;BME280;7200;52.194;9.900;2023-04-27T02:40:18;100712.09;;;7.00;100.00
14232;BME280;7200;52.194;9.900;2023-04-27T02:42:44;100731.31;;;7.02;100.00
14232;BME280;7200;52.194;9.900;2023-04-27T02:45:09;100729.63;;;6.98;100.00
14232;BME280;7200;52.194;9.900;2023-04-27T02:47:35;100740.97;;;6.98;100.00
14232;BME280;7200;52.194;9.900;2023-04-27T02:50:00;100727.88;;;6.98;100.00
14232;BME280;7200;52.194;9.900;2023-04-27T02:52:26;100723.69;;;6.88;100.00
14232;BME280;7200;52.194;9.900;2023-04-27T02:54:51;100725.50;;;6.83;100.00
14232;BME280;7200;52.194;9.900;2023-04-27T02:57:17;100705.56;;;6.73;100.00
14232;BME280;7200;52.194;9.900;2023-04-27T02:59:42;100719.44;;;6.79;100.00
14232;BME280;7200;52.194;9.900;2023-04-27T03:02:07;100690.13;;;6.56;100.00
14232;BME280;7200;52.194;9.900;2023-04-27T03:04:32;100705.72;;;6.63;100.00
14232;BME280;7200;52.194;9.900;2023-04-27T03:06:58;100724.88;;;6.69;100.00
14232;BME280;7200;52.194;9.900;2023-04-27T03:09:23;100701.50;;;6.53;100.00
14232;BME280;7200;52.194;9.900;2023-04-27T03:11:48;100714.59;;;6.55;100.00
14232;BME280;7200;52.194;9.900;2023-04-27T03:14:14;100719.88;;;6.52;100.00
14232;BME280;7200;52.194;9.900;2023-04-27T03:16:40;100722.50;;;6.52;100.00
14232;BME280;7200;52.194;9.900;2023-04-27T03:19:05;100723.38;;;6.51;100.00
14232;BME280;7200;52.194;9.900;2023-04-27T03:21:31;100705.19;;;6.41;100.00
14232;BME280;7200;52.194;9.900;2023-04-27T03:23:56;100732.22;;;6.45;100.00
14232;BME280;7200;52.194;9.900;2023-04-27T03:26:22;100729.59;;;6.43;100.00
14232;BME280;7200;52.194;9.900;2023-04-27T03:28:47;100714.13;;;6.27;100.00
14232;BME280;7200;52.194;9.900;2023-04-27T03:31:13;100723.00;;;6.18;100.00
14232;BME280;7200;52.194;9.900;2023-04-27T03:33:51;100732.44;;;6.28;100.00
14232;BME280;7200;52.194;9.900;2023-04-27T03:36:34;100725.41;;;6.33;100.00
14232;BME280;7200;52.194;9.900;2023-04-27T03:39:00;100727.31;;;6.22;100.00
14232;BME280;7200;52.194;9.900;2023-04-27T03:41:25;100723.75;;;6.24;100.00
14232;BME280;7200;52.194;9.900;2023-04-27T03:43:51;100744.63;;;6.31;100.00
14232;BME280;7200;52.194;9.900;2023-04-27T03:46:17;100739.56;;;6.20;100.00
14232;BME280;7200;52.194;9.900;2023-04-27T03:48:42;100728.28;;;6.12;100.00
14232;BME280;7200;52.194;9.900;2023-04-27T03:51:08;100710.22;;;5.92;100.00
14232;BME280;7200;52.194;9.900;2023-04-27T03:53:33;100717.19;;;5.91;100.00
14232;BME280;7200;52.194;9.900;2023-04-27T03:55:58;100721.63;;;5.84;100.00
14232;BME280;7200;52.194;9.900;2023-04-27T03:58:25;100738.94;;;6.01;100.00
14232;BME280;7200;52.194;9.900;2023-04-27T04:00:51;100722.38;;;5.94;100.00
14232;BME280;7200;52.194;9.900;2023-04-27T04:03:16;100733.69;;;6.01;100.00
14232;BME280;7200;52.194;9.900;2023-04-27T04:05:41;100730.16;;;6.05;100.00
14232;BME280;7200;52.194;9.900;2023-04-27T04:08:07;100737.06;;;6.09;100.00
14232;BME280;7200;52.194;9.900;2023-04-27T04:10:32;100726.50;;;6.15;100.00
14232;BME280;7200;52.194;9.900;2023-04-27T04:12:57;100699.78;;;5.87;100.00
14232;BME280;7200;52.194;9.900;2023-04-27T04:15:22;100718.88;;;5.98;100.00
14232;BME280;7200;52.194;9.900;2023-04-27T04:17:48;100708.44;;;5.94;100.00
14232;BME280;7200;52.194;9.900;2023-04-27T04:20:13;100739.63;;;6.14;100.00
14232;BME280;7200;52.194;9.900;2023-04-27T04:22:38;100715.28;;;6.07;100.00
14232;BME280;7200;52.194;9.900;2023-04-27T04:25:04;100712.69;;;6.04;100.00
14232;BME280;7200;52.194;9.900;2023-04-27T04:27:30;100704.06;;;5.93;100.00
14232;BME280;7200;52.194;9.900;2023-04-27T04:29:56;100707.63;;;5.87;100.00
14232;BME280;7200;52.194;9.900;2023-04-27T04:32:24;100717.28;;;5.82;100.00
14232;BME280;7200;52.194;9.900;2023-04-27T04:34:55;100739.78;;;6.01;100.00
14232;BME280;7200;52.194;9.900;2023-04-27T04:37:21;100751.84;;;6.13;100.00
14232;BME280;7200;52.194;9.900;2023-04-27T04:39:47;100725.75;;;6.06;100.00
14232;BME280;7200;52.194;9.900;2023-04-27T04:42:12;100723.25;;;5.98;100.00
14232;BME280;7200;52.194;9.900;2023-04-27T04:44:37;100732.69;;;6.08;100.00
14232;BME280;7200;52.194;9.900;2023-04-27T04:47:03;100717.06;;;6.02;100.00
14232;BME280;7200;52.194;9.900;2023-04-27T04:49:29;100706.03;;;5.77;100.00
14232;BME280;7200;52.194;9.900;2023-04-27T04:51:54;100722.59;;;5.79;100.00
14232;BME280;7200;52.194;9.900;2023-04-27T04:54:19;100720.97;;;5.67;100.00
14232;BME280;7200;52.194;9.900;2023-04-27T04:56:45;100734.84;;;5.72;100.00
14232;BME280;7200;52.194;9.900;2023-04-27T04:59:10;100749.59;;;5.82;100.00
14232;BME280;7200;52.194;9.900;2023-04-27T05:01:35;100764.28;;;5.94;100.00
14232;BME280;7200;52.194;9.900;2023-04-27T05:04:01;100770.22;;;6.12;100.00
14232;BME280;7200;52.194;9.900;2023-04-27T05:06:26;100777.97;;;6.19;100.00
14232;BME280;7200;52.194;9.900;2023-04-27T05:08:51;100771.75;;;6.30;100.00
14232;BME280;7200;52.194;9.900;2023-04-27T05:11:17;100760.31;;;6.34;100.00
14232;BME280;7200;52.194;9.900;2023-04-27T05:13:42;100747.38;;;6.21;100.00
14232;BME280;7200;52.194;9.900;2023-04-27T05:16:08;100755.28;;;6.20;100.00
14232;BME280;7200;52.194;9.900;2023-04-27T05:18:33;100751.66;;;6.29;100.00
14232;BME280;7200;52.194;9.900;2023-04-27T05:20:59;100770.69;;;6.41;100.00
14232;BME280;7200;52.194;9.900;2023-04-27T05:23:24;100780.19;;;6.52;100.00
14232;BME280;7200;52.194;9.900;2023-04-27T05:25:50;100774.81;;;6.59;100.00
14232;BME280;7200;52.194;9.900;2023-04-27T05:28:15;100779.72;;;6.81;100.00
14232;BME280;7200;52.194;9.900;2023-04-27T05:30:41;100741.56;;;6.63;100.00
14232;BME280;7200;52.194;9.900;2023-04-27T05:33:06;100759.53;;;6.88;100.00
14232;BME280;7200;52.194;9.900;2023-04-27T05:35:32;100761.25;;;6.89;100.00
14232;BME280;7200;52.194;9.900;2023-04-27T05:37:57;100731.66;;;6.80;100.00
14232;BME280;7200;52.194;9.900;2023-04-27T05:40:23;100747.28;;;6.88;100.00
14232;BME280;7200;52.194;9.900;2023-04-27T05:42:48;100736.81;;;6.85;100.00
14232;BME280;7200;52.194;9.900;2023-04-27T05:45:14;100753.06;;;7.09;100.00
14232;BME280;7200;52.194;9.900;2023-04-27T05:47:39;100734.13;;;6.91;100.00
14232;BME280;7200;52.194;9.900;2023-04-27T05:50:05;100736.56;;;7.02;100.00
14232;BME280;7200;52.194;9.900;2023-04-27T05:52:30;100730.63;;;6.91;100.00
14232;BME280;7200;52.194;9.900;2023-04-27T05:54:56;100723.69;;;6.88;100.00
14232;BME280;7200;52.194;9.900;2023-04-27T05:57:25;100736.63;;;6.97;100.00
14232;BME280;7200;52.194;9.900;2023-04-27T05:59:51;100755.72;;;7.07;100.00
14232;BME280;7200;52.194;9.900;2023-04-27T06:02:17;100779.91;;;7.23;100.00
14232;BME280;7200;52.194;9.900;2023-04-27T06:04:42;100778.09;;;7.28;100.00
14232;BME280;7200;52.194;9.900;2023-04-27T06:07:08;100771.00;;;7.33;100.00
14232;BME280;7200;52.194;9.900;2023-04-27T06:09:34;100786.59;;;7.43;100.00
14232;BME280;7200;52.194;9.900;2023-04-27T06:12:00;100804.75;;;7.55;100.00
14232;BME280;7200;52.194;9.900;2023-04-27T06:14:27;100810.00;;;7.55;100.00
14232;BME280;7200;52.194;9.900;2023-04-27T06:16:53;100800.69;;;7.37;100.00
14232;BME280;7200;52.194;9.900;2023-04-27T06:19:18;100830.97;;;7.58;100.00
14232;BME280;7200;52.194;9.900;2023-04-27T06:21:43;100808.56;;;7.37;100.00
14232;BME280;7200;52.194;9.900;2023-04-27T06:24:09;100825.66;;;7.61;100.00
14232;BME280;7200;52.194;9.900;2023-04-27T06:26:34;100799.56;;;7.52;100.00
14232;BME280;7200;52.194;9.900;2023-04-27T06:29:00;100833.94;;;7.86;100.00
14232;BME280;7200;52.194;9.900;2023-04-27T06:31:27;100801.94;;;7.66;100.00
14232;BME280;7200;52.194;9.900;2023-04-27T06:33:52;100788.66;;;7.73;100.00
14232;BME280;7200;52.194;9.900;2023-04-27T06:36:18;100787.81;;;7.71;100.00
14232;BME280;7200;52.194;9.900;2023-04-27T06:38:43;100807.56;;;7.91;100.00
14232;BME280;7200;52.194;9.900;2023-04-27T06:41:08;100791.97;;;7.83;100.00
14232;BME280;7200;52.194;9.900;2023-04-27T06:43:34;100781.44;;;7.83;100.00
14232;BME280;7200;52.194;9.900;2023-04-27T06:45:59;100801.28;;;7.99;100.00
14232;BME280;7200;52.194;9.900;2023-04-27T06:48:24;100822.66;;;8.25;100.00
14232;BME280;7200;52.194;9.900;2023-04-27T06:50:50;100779.75;;;8.24;100.00
14232;BME280;7200;52.194;9.900;2023-04-27T06:53:15;100781.59;;;8.19;100.00
14232;BME280;7200;52.194;9.900;2023-04-27T06:55:41;100757.44;;;8.02;100.00
14232;BME280;7200;52.194;9.900;2023-04-27T06:58:07;100764.16;;;8.16;100.00
14232;BME280;7200;52.194;9.900;2023-04-27T07:00:32;100764.81;;;8.26;100.00
14232;BME280;7200;52.194;9.900;2023-04-27T07:02:58;100732.59;;;8.18;100.00
14232;BME280;7200;52.194;9.900;2023-04-27T07:05:23;100722.97;;;8.15;100.00
14232;BME280;7200;52.194;9.900;2023-04-27T07:07:48;100731.63;;;8.21;100.00
14232;BME280;7200;52.194;9.900;2023-04-27T07:10:14;100737.28;;;8.46;100.00
14232;BME280;7200;52.194;9.900;2023-04-27T07:12:41;100727.41;;;8.55;100.00
14232;BME280;7200;52.194;9.900;2023-04-27T07:15:07;100768.34;;;8.66;100.00
14232;BME280;7200;52.194;9.900;2023-04-27T07:17:32;100708.09;;;8.55;100.00
14232;BME280;7200;52.194;9.900;2023-04-27T07:19:58;100772.88;;;8.96;100.00
14232;BME280;7200;52.194;9.900;2023-04-27T07:22:23;100804.97;;;9.47;100.00
14232;BME280;7200;52.194;9.900;2023-04-27T07:24:49;100721.94;;;9.33;100.00
14232;BME280;7200;52.194;9.900;2023-04-27T07:27:15;100711.69;;;9.23;100.00
14232;BME280;7200;52.194;9.900;2023-04-27T07:29:40;100690.25;;;9.04;100.00
14232;BME280;7200;52.194;9.900;2023-04-27T07:32:07;100689.34;;;9.05;100.00
14232;BME280;7200;52.194;9.900;2023-04-27T07:34:32;100691.03;;;9.07;100.00
14232;BME280;7200;52.194;9.900;2023-04-27T07:36:58;100707.66;;;9.08;100.00
14232;BME280;7200;52.194;9.900;2023-04-27T07:39:24;100711.97;;;9.12;100.00
14232;BME280;7200;52.194;9.900;2023-04-27T07:41:51;100680.84;;;8.95;100.00
14232;BME280;7200;52.194;9.900;2023-04-27T07:44:17;100695.16;;;9.18;100.00
14232;BME280;7200;52.194;9.900;2023-04-27T07:46:43;100669.09;;;9.08;100.00
14232;BME280;7200;52.194;9.900;2023-04-27T07:49:08;100676.56;;;9.24;100.00
14232;BME280;7200;52.194;9.900;2023-04-27T07:51:34;100719.13;;;9.72;100.00
14232;BME280;7200;52.194;9.900;2023-04-27T07:54:03;100640.91;;;9.43;100.00
14232;BME280;7200;52.194;9.900;2023-04-27T07:56:29;100610.38;;;9.67;100.00
14232;BME280;7200;52.194;9.900;2023-04-27T07:58:54;100611.41;;;9.91;100.00
14232;BME280;7200;52.194;9.900;2023-04-27T08:01:20;100620.19;;;10.19;100.00
14232;BME280;7200;52.194;9.900;2023-04-27T08:03:46;100642.88;;;10.24;100.00
14232;BME280;7200;52.194;9.900;2023-04-27T08:06:11;100476.06;;;9.38;100.00
14232;BME280;7200;52.194;9.900;2023-04-27T08:08:36;100599.31;;;9.84;100.00
14232;BME280;7200;52.194;9.900;2023-04-27T08:11:02;100678.41;;;10.42;100.00
14232;BME280;7200;52.194;9.900;2023-04-27T08:13:27;100617.03;;;10.62;100.00
14232;BME280;7200;52.194;9.900;2023-04-27T08:15:53;100598.94;;;10.78;100.00
14232;BME280;7200;52.194;9.900;2023-04-27T08:18:23;100471.75;;;9.90;100.00
14232;BME280;7200;52.194;9.900;2023-04-27T08:20:48;100638.75;;;10.45;100.00
14232;BME280;7200;52.194;9.900;2023-04-27T08:23:13;100582.97;;;10.56;100.00
14232;BME280;7200;52.194;9.900;2023-04-27T08:25:39;100525.94;;;10.52;100.00
14232;BME280;7200;52.194;9.900;2023-04-27T08:28:05;100545.25;;;11.03;100.00
14232;BME280;7200;52.194;9.900;2023-04-27T08:30:30;100500.69;;;10.45;100.00
14232;BME280;7200;52.194;9.900;2023-04-27T08:32:55;100575.97;;;10.28;100.00
14232;BME280;7200;52.194;9.900;2023-04-27T08:35:21;100627.06;;;11.04;100.00
14232;BME280;7200;52.194;9.900;2023-04-27T08:37:46;100628.09;;;11.49;100.00
14232;BME280;7200;52.194;9.900;2023-04-27T08:40:12;100719.50;;;11.55;100.00
14232;BME280;7200;52.194;9.900;2023-04-27T08:42:39;100527.78;;;11.00;100.00
14232;BME280;7200;52.194;9.900;2023-04-27T08:45:06;100478.72;;;10.69;100.00
14232;BME280;7200;52.194;9.900;2023-04-27T08:47:32;100369.28;;;10.32;100.00
14232;BME280;7200;52.194;9.900;2023-04-27T08:49:58;100340.69;;;10.20;99.19
14232;BME280;7200;52.194;9.900;2023-04-27T08:52:23;100288.34;;;10.09;97.28
14232;BME280;7200;52.194;9.900;2023-04-27T08:54:48;100361.53;;;10.26;97.76
14232;BME280;7200;52.194;9.900;2023-04-27T08:57:14;100434.88;;;10.42;99.17
14232;BME280;7200;52.194;9.900;2023-04-27T08:59:40;100413.47;;;10.51;97.22
14232;BME280;7200;52.194;9.900;2023-04-27T09:02:17;100492.97;;;10.89;98.90
14232;BME280;7200;52.194;9.900;2023-04-27T09:04:43;100463.03;;;10.66;99.84
14232;BME280;7200;52.194;9.900;2023-04-27T09:07:16;100491.75;;;10.74;99.53
14232;BME280;7200;52.194;9.900;2023-04-27T09:09:43;100472.66;;;10.91;97.84
14232;BME280;7200;52.194;9.900;2023-04-27T09:12:19;100531.97;;;11.06;98.47
14232;BME280;7200;52.194;9.900;2023-04-27T09:14:58;100536.19;;;11.34;97.61
14232;BME280;7200;52.194;9.900;2023-04-27T09:17:25;100520.69;;;11.24;98.76
14232;BME280;7200;52.194;9.900;2023-04-27T09:19:51;100518.34;;;11.17;99.33
14232;BME280;7200;52.194;9.900;2023-04-27T09:22:17;100527.22;;;11.61;96.05
14232;BME280;7200;52.194;9.900;2023-04-27T09:24:51;100565.19;;;12.04;92.98
14232;BME280;7200;52.194;9.900;2023-04-27T09:27:20;100256.81;;;11.20;86.72
14232;BME280;7200;52.194;9.900;2023-04-27T09:29:46;100336.66;;;11.47;86.22
14232;BME280;7200;52.194;9.900;2023-04-27T09:32:16;100416.06;;;11.86;86.30
14232;BME280;7200;52.194;9.900;2023-04-27T09:34:42;100504.41;;;12.25;86.94
14232;BME280;7200;52.194;9.900;2023-04-27T09:37:08;100441.03;;;12.42;84.08
14232;BME280;7200;52.194;9.900;2023-04-27T09:39:34;100586.19;;;13.13;83.76
14232;BME280;7200;52.194;9.900;2023-04-27T09:42:01;100443.50;;;13.05;80.61
14232;BME280;7200;52.194;9.900;2023-04-27T09:44:30;100357.66;;;13.10;76.79
14232;BME280;7200;52.194;9.900;2023-04-27T09:46:59;100447.91;;;12.86;82.25
14232;BME280;7200;52.194;9.900;2023-04-27T09:49:26;100463.53;;;12.92;82.52
14232;BME280;7200;52.194;9.900;2023-04-27T09:51:54;100400.09;;;12.70;81.64
14232;BME280;7200;52.194;9.900;2023-04-27T09:54:24;100423.50;;;12.60;83.31
14232;BME280;7200;52.194;9.900;2023-04-27T09:57:04;100196.91;;;11.61;81.14
14232;BME280;7200;52.194;9.900;2023-04-27T10:02:20;100130.66;;;11.26;78.72
14232;BME280;7200;52.194;9.900;2023-04-27T10:07:31;100153.16;;;11.15;79.17
14232;BME280;7200;52.194;9.900;2023-04-27T10:10:01;100188.94;;;11.22;78.76
14232;BME280;7200;52.194;9.900;2023-04-27T10:12:35;100279.81;;;11.59;79.81
14232;BME280;7200;52.194;9.900;2023-04-27T10:15:12;100340.34;;;12.06;79.50
14232;BME280;7200;52.194;9.900;2023-04-27T10:17:46;100589.22;;;13.04;81.18
14232;BME280;7200;52.194;9.900;2023-04-27T10:20:12;100546.03;;;13.22;80.43
14232;BME280;7200;52.194;9.900;2023-04-27T10:25:38;100431.56;;;13.71;72.60
14232;BME280;7200;52.194;9.900;2023-04-27T10:28:04;100382.34;;;13.66;70.87
14232;BME280;7200;52.194;9.900;2023-04-27T10:30:38;100270.28;;;12.91;71.97
14232;BME280;7200;52.194;9.900;2023-04-27T10:33:08;100393.88;;;13.09;73.56
14232;BME280;7200;52.194;9.900;2023-04-27T10:35:35;100097.22;;;12.03;73.57
14232;BME280;7200;52.194;9.900;2023-04-27T10:38:14;100300.38;;;12.52;74.58
14232;BME280;7200;52.194;9.900;2023-04-27T10:40:43;100394.53;;;12.76;76.30
14232;BME280;7200;52.194;9.900;2023-04-27T10:43:11;100150.94;;;12.41;70.74
14232;BME280;7200;52.194;9.900;2023-04-27T10:45:37;99997.28;;;11.92;67.49
14232;BME280;7200;52.194;9.900;2023-04-27T10:48:02;100058.22;;;11.89;68.26
14232;BME280;7200;52.194;9.900;2023-04-27T10:50:28;100163.81;;;12.30;67.57
14232;BME280;7200;52.194;9.900;2023-04-27T10:52:53;100242.78;;;12.76;66.25
14232;BME280;7200;52.194;9.900;2023-04-27T10:55:20;100197.38;;;12.83;65.37
14232;BME280;7200;52.194;9.900;2023-04-27T10:57:47;100067.91;;;12.44;64.92
14232;BME280;7200;52.194;9.900;2023-04-27T11:00:15;100344.53;;;13.07;68.30
14232;BME280;7200;52.194;9.900;2023-04-27T11:02:41;100259.22;;;13.36;64.68
14232;BME280;7200;52.194;9.900;2023-04-27T11:05:16;100229.28;;;13.52;62.17
14232;BME280;7200;52.194;9.900;2023-04-27T11:07:41;100251.59;;;13.48;62.95
14232;BME280;7200;52.194;9.900;2023-04-27T11:10:07;100064.63;;;12.91;61.84
14232;BME280;7200;52.194;9.900;2023-04-27T11:12:33;99998.94;;;12.30;61.78
14232;BME280;7200;52.194;9.900;2023-04-27T11:14:58;100148.97;;;12.81;64.24
14232;BME280;7200;52.194;9.900;2023-04-27T11:17:31;100187.28;;;13.09;61.84
14232;BME280;7200;52.194;9.900;2023-04-27T11:19:56;100247.44;;;13.24;62.88
14232;BME280;7200;52.194;9.900;2023-04-27T11:22:21;100203.41;;;13.57;60.23
14232;BME280;7200;52.194;9.900;2023-04-27T11:24:51;100228.88;;;13.77;58.78
14232;BME280;7200;52.194;9.900;2023-04-27T11:27:17;100195.25;;;13.77;58.68
14232;BME280;7200;52.194;9.900;2023-04-27T11:29:44;100154.56;;;13.45;59.53
14232;BME280;7200;52.194;9.900;2023-04-27T11:32:22;100043.94;;;13.15;57.30
14232;BME280;7200;52.194;9.900;2023-04-27T11:34:49;99909.53;;;12.54;57.32
14232;BME280;7200;52.194;9.900;2023-04-27T11:37:20;99993.53;;;12.83;56.87
14232;BME280;7200;52.194;9.900;2023-04-27T11:39:46;99911.00;;;12.59;55.47
14232;BME280;7200;52.194;9.900;2023-04-27T11:44:56;99927.34;;;12.83;54.39
14232;BME280;7200;52.194;9.900;2023-04-27T11:47:23;99947.25;;;12.57;54.15
14232;BME280;7200;52.194;9.900;2023-04-27T11:49:53;100092.09;;;13.06;55.19
14232;BME280;7200;52.194;9.900;2023-04-27T11:52:19;100147.75;;;13.57;54.85
14232;BME280;7200;52.194;9.900;2023-04-27T11:54:52;100038.97;;;13.09;55.24
14232;BME280;7200;52.194;9.900;2023-04-27T11:57:32;99962.31;;;12.73;54.98
14232;BME280;7200;52.194;9.900;2023-04-27T11:59:59;100033.09;;;12.87;55.69
14232;BME280;7200;52.194;9.900;2023-04-27T12:02:25;100289.31;;;13.53;58.31
14232;BME280;7200;52.194;9.900;2023-04-27T12:04:51;100203.03;;;13.80;55.20
14232;BME280;7200;52.194;9.900;2023-04-27T12:07:17;100283.53;;;14.13;55.08
14232;BME280;7200;52.194;9.900;2023-04-27T12:09:42;100067.97;;;13.61;53.28
14232;BME280;7200;52.194;9.900;2023-04-27T12:12:08;100081.56;;;13.55;54.85
14232;BME280;7200;52.194;9.900;2023-04-27T12:14:34;100043.91;;;13.33;55.63
14232;BME280;7200;52.194;9.900;2023-04-27T12:16:59;100169.59;;;13.78;54.29
14232;BME280;7200;52.194;9.900;2023-04-27T12:19:25;100283.94;;;14.05;57.23
14232;BME280;7200;52.194;9.900;2023-04-27T12:21:51;100123.84;;;13.90;54.73
14232;BME280;7200;52.194;9.900;2023-04-27T12:24:17;100011.88;;;13.53;52.72
14232;BME280;7200;52.194;9.900;2023-04-27T12:26:42;99995.78;;;13.40;53.16
14232;BME280;7200;52.194;9.900;2023-04-27T12:29:08;99999.56;;;13.52;52.97
14232;BME280;7200;52.194;9.900;2023-04-27T12:31:33;100001.63;;;13.30;53.06
14232;BME280;7200;52.194;9.900;2023-04-27T12:33:58;100164.91;;;13.83;54.28
14232;BME280;7200;52.194;9.900;2023-04-27T12:36:24;100165.94;;;13.96;54.58
14232;BME280;7200;52.194;9.900;2023-04-27T12:38:51;100151.28;;;14.05;53.87
14232;BME280;7200;52.194;9.900;2023-04-27T12:41:16;100497.66;;;14.81;58.93
14232;BME280;7200;52.194;9.900;2023-04-27T12:43:41;100484.94;;;15.19;58.06
14232;BME280;7200;52.194;9.900;2023-04-27T12:46:07;100428.97;;;15.54;55.47
14232;BME280;7200;52.194;9.900;2023-04-27T12:48:32;100411.25;;;15.69;55.21
14232;BME280;7200;52.194;9.900;2023-04-27T12:50:58;100418.06;;;15.58;56.49
14232;BME280;7200;52.194;9.900;2023-04-27T12:53:23;100435.88;;;15.88;54.69
14232;BME280;7200;52.194;9.900;2023-04-27T12:55:49;100382.84;;;15.85;55.27
14232;BME280;7200;52.194;9.900;2023-04-27T12:58:15;100255.03;;;15.87;51.01
14232;BME280;7200;52.194;9.900;2023-04-27T13:00:40;100284.88;;;15.77;51.15
14232;BME280;7200;52.194;9.900;2023-04-27T13:03:06;100328.69;;;16.01;51.38
14232;BME280;7200;52.194;9.900;2023-04-27T13:05:31;100002.59;;;14.38;51.81
14232;BME280;7200;52.194;9.900;2023-04-27T13:07:57;100341.00;;;15.57;52.68